Airport View

Enter AWOS ICAO identifier for current METAR.

ex. KFNL

KTPL 120951Z AUTO 35017G24KT 10SM CLR M02/M08 A3054 RMK AO2 PK WND 34031/0922 SLP342 T10171078 FZRANO

12 Nov 2019 10:32

Frequency: 134.975

Phone: 254-774-8337

Other Area AWOS: KILE - KHLR - KPWG - KGRK

TAF KGRK 120800Z 1208/1314 35015G25KT 9999 FEW150 QNH3047INS TEMPO 1208/1210 35025G35KT 520004 BECMG 1214/1215 36012G18KT 9999 SKC QNH3050INS BECMG 1223/1224 36009KT 9999 SKC QNH3030INS TX05/1220Z TNM03/1211Z